首页
METAR-TAF:

METAR-TAF

机场 :

锡利群岛, 英格兰

纬度: 49-55N, 经度: 006-18W, 海拔: 31米

当前天气观测

该预报发布于8小时和41分钟前的16:50 UTC
风速8节,风向西南
温度 13°C
湿度 72%
气压 1005 hPa
能见度10公里或以上
少量云层高于2200英尺

METAR: EGHE 161650Z 23008KT 9999 FEW022 13/08 Q1005

时间: 02:31 (01:31 UTC)

预报

该预报发布于11小时和30分钟前的14:01 UTC
预报有效从16日的 15点(UTC)到 16日的 18点(UTC)
风速12节,风向西
能见度10公里或以上
散云层高于2600英尺
几率 30% :
短暂存在
从 16日的 15点(UTC)到 16日的 18点(UTC)
能見度: 8000
小阵雨

TAF: EGHE 161401Z 1615/1618 27012KT 9999 SCT026 PROB30 TEMPO 1615/1618 8000 -SHRA

超过4000个机场的气象观测和天气预报(METAR&TAF报告)。

可查询的气象台以黄色和红色小点在地图上表示。

将鼠标移到小点上方,可查看气象台名称。

然后点击查看天气观测和预报。

如需切换地图:点击带黑十字的绿色按钮放大地图;点击带横线的绿色按钮缩小地图;或者点击绿色箭头查看邻近地区的地图。


METAR-TAF: